createdAt,value
2023-03-11T00:00:22.468Z,98428.75
2023-03-11T00:01:26.377Z,98415.81
2023-03-11T00:02:29.078Z,98419.25
2023-03-11T00:03:31.783Z,98420.91
2023-03-11T00:04:34.486Z,98381.09
2023-03-11T00:05:39.487Z,98375.56
2023-03-11T00:06:42.568Z,98415.25
2023-03-11T00:07:45.374Z,98408.31
2023-03-11T00:08:48.051Z,98394.13
2023-03-11T00:09:51.155Z,98374.06
2023-03-11T00:11:00.375Z,98415.25
2023-03-11T00:12:04.142Z,98409.03
2023-03-11T00:13:08.569Z,98409.03
2023-03-11T00:14:11.223Z,98398.72
2023-03-11T00:15:14.925Z,98400.63
2023-03-11T00:16:18.058Z,98397.81
2023-03-11T00:17:20.995Z,98389.25
2023-03-11T00:18:30.300Z,98410.53
2023-03-11T00:19:32.968Z,98408.72
2023-03-11T00:20:39.047Z,98405.16
2023-03-11T00:21:42.104Z,98396.62
2023-03-11T00:22:45.298Z,98354.44
2023-03-11T00:23:48.075Z,98401.84
2023-03-11T00:24:50.755Z,98384.72
2023-03-11T00:25:53.667Z,98335.72
2023-03-11T00:26:56.341Z,98399.91
2023-03-11T00:28:00.326Z,98355.72
2023-03-11T00:29:03.102Z,98399.34
2023-03-11T00:30:06.826Z,98369.81
2023-03-11T00:31:12.446Z,98391.50
2023-03-11T00:32:15.470Z,98385.44
2023-03-11T00:33:18.633Z,98386.25
2023-03-11T00:34:21.528Z,98319.94
2023-03-11T00:35:30.498Z,98391.50
2023-03-11T00:36:34.455Z,98379.94
2023-03-11T00:37:37.220Z,98384.72
2023-03-11T00:38:40.566Z,98302.81
2023-03-11T00:39:43.332Z,98378.56
2023-03-11T00:40:48.174Z,98382.25
2023-03-11T00:41:51.863Z,98376.06
2023-03-11T00:42:55.021Z,98376.75
2023-03-11T00:43:58.075Z,98338.44
2023-03-11T00:45:00.809Z,98382.25
2023-03-11T00:46:05.036Z,98379.66
2023-03-11T00:47:10.896Z,98383.19
2023-03-11T00:48:14.087Z,98374.41
2023-03-11T00:49:17.234Z,98377.97
2023-03-11T00:50:22.863Z,98340.34
2023-03-11T00:51:25.626Z,98378.66
2023-03-11T00:52:29.129Z,98381.41
2023-03-11T00:53:31.877Z,98380.59
2023-03-11T00:54:35.173Z,98379.50
2023-03-11T00:55:38.283Z,98381.28
2023-03-11T00:56:41.906Z,98379.66
2023-03-11T00:57:45.180Z,98381.56
2023-03-11T00:58:48.553Z,98380.59
2023-03-11T00:59:52.544Z,98375.34
2023-03-11T01:00:55.305Z,98388.44
2023-03-11T01:01:58.499Z,98383.91
2023-03-11T01:03:01.614Z,98376.31
2023-03-11T01:04:04.401Z,98370.25
2023-03-11T01:05:08.383Z,98378.13
2023-03-11T01:06:13.426Z,98373.00
2023-03-11T01:07:16.180Z,98377.28
2023-03-11T01:08:19.211Z,98376.16
2023-03-11T01:09:22.030Z,98372.47
2023-03-11T01:10:25.236Z,98368.19
2023-03-11T01:11:28.040Z,98365.03
2023-03-11T01:12:30.729Z,98376.63
2023-03-11T01:13:34.604Z,98371.66
2023-03-11T01:14:37.247Z,98368.47
2023-03-11T01:15:40.352Z,98370.81
2023-03-11T01:16:43.333Z,98340.16
2023-03-11T01:17:46.572Z,98366.66
2023-03-11T01:18:49.654Z,98370.94
2023-03-11T01:19:52.458Z,98362.25
2023-03-11T01:20:55.714Z,98376.31
2023-03-11T01:21:58.487Z,98367.75
2023-03-11T01:23:01.447Z,98372.72
2023-03-11T01:24:04.555Z,98365.28
2023-03-11T01:25:08.207Z,98364.19
2023-03-11T01:26:11.210Z,98363.34
2023-03-11T01:27:14.074Z,98367.75
2023-03-11T01:28:16.839Z,98361.44
2023-03-11T01:29:19.571Z,98325.50
2023-03-11T01:30:24.523Z,98364.72
2023-03-11T01:31:27.892Z,98360.06
2023-03-11T01:32:30.991Z,98361.13
2023-03-11T01:33:33.659Z,98351.19
2023-03-11T01:34:36.484Z,98361.69
2023-03-11T01:35:40.185Z,98354.81
2023-03-11T01:36:43.196Z,98347.50
2023-03-11T01:37:47.363Z,98363.59
2023-03-11T01:38:50.097Z,98360.06
2023-03-11T01:39:52.796Z,98353.28
2023-03-11T01:40:55.540Z,98349.03
2023-03-11T01:41:58.596Z,98349.97
2023-03-11T01:43:02.467Z,98301.63
2023-03-11T01:44:05.942Z,98351.62
2023-03-11T01:45:28.936Z,98306.84
2023-03-11T01:46:33.952Z,98349.84
2023-03-11T01:47:40.109Z,98349.28
2023-03-11T01:49:04.797Z,98349.28
2023-03-11T01:50:12.733Z,98340.47
2023-03-11T01:51:19.772Z,98313.38
2023-03-11T01:52:22.737Z,98340.72
2023-03-11T01:53:26.224Z,98334.94
2023-03-11T01:54:32.776Z,98329.09
2023-03-11T01:55:36.172Z,98287.50
2023-03-11T01:56:41.303Z,98335.03
2023-03-11T01:57:46.703Z,98336.84
2023-03-11T01:58:52.855Z,98340.53
2023-03-11T01:59:58.528Z,98337.66
2023-03-11T02:01:02.886Z,98335.19
2023-03-11T02:02:39.879Z,98336.00
2023-03-11T02:03:43.263Z,98341.94
2023-03-11T02:04:47.806Z,98301.06
2023-03-11T02:05:52.901Z,98337.09
2023-03-11T02:06:58.800Z,98339.44
2023-03-11T02:08:02.246Z,98327.00
2023-03-11T02:09:05.452Z,98345.50
2023-03-11T02:10:11.194Z,98342.19
2023-03-11T02:11:19.467Z,98340.53
2023-03-11T02:12:22.770Z,98339.81
2023-03-11T02:13:25.782Z,98334.59
2023-03-11T02:14:30.827Z,98341.06
2023-03-11T02:15:33.627Z,98328.22
2023-03-11T02:16:36.999Z,98335.97
2023-03-11T02:17:42.538Z,98334.19
2023-03-11T02:18:46.090Z,98335.81
2023-03-11T02:19:59.074Z,98315.09
2023-03-11T02:21:16.663Z,98327.53
2023-03-11T02:22:20.800Z,98324.22
2023-03-11T02:23:29.975Z,98320.78
2023-03-11T02:25:00.152Z,98325.16
2023-03-11T02:26:30.719Z,98317.72
2023-03-11T02:27:38.760Z,98321.88
2023-03-11T02:28:42.788Z,98318.53
2023-03-11T02:29:49.807Z,98314.41
2023-03-11T02:30:53.696Z,98323.78
2023-03-11T02:31:58.742Z,98320.19
2023-03-11T02:33:02.549Z,98323.78
2023-03-11T02:34:10.191Z,98323.22
2023-03-11T02:35:12.856Z,98313.56
2023-03-11T02:36:34.283Z,98316.31
2023-03-11T02:37:37.388Z,98315.75
2023-03-11T02:38:40.577Z,98311.94
2023-03-11T02:39:47.072Z,98311.06
2023-03-11T02:40:55.603Z,98305.16
2023-03-11T02:41:58.842Z,98307.47
2023-03-11T02:43:06.261Z,98303.38
2023-03-11T02:44:13.166Z,98309.56
2023-03-11T02:45:18.522Z,98306.25
2023-03-11T02:46:21.303Z,98303.63
2023-03-11T02:47:24.508Z,98287.50
2023-03-11T02:48:30.004Z,98299.78
2023-03-11T02:49:33.365Z,98216.94
2023-03-11T02:50:37.382Z,98302.56
2023-03-11T02:51:40.372Z,98296.75
2023-03-11T02:52:43.034Z,98296.63
2023-03-11T02:53:49.640Z,98302.56
2023-03-11T02:54:52.600Z,98304.34
2023-03-11T02:55:55.382Z,98300.03
2023-03-11T02:56:58.302Z,98303.50
2023-03-11T02:58:03.446Z,98307.91
2023-03-11T02:59:06.598Z,98310.50
2023-03-11T03:00:13.406Z,98274.88
2023-03-11T03:01:16.495Z,98304.47
2023-03-11T03:02:20.131Z,98307.78
2023-03-11T03:03:23.053Z,98308.87
2023-03-11T03:04:25.985Z,98281.50
2023-03-11T03:05:29.029Z,98308.72
2023-03-11T03:06:32.789Z,98307.91
2023-03-11T03:07:36.625Z,98310.66
2023-03-11T03:08:39.466Z,98316.81
2023-03-11T03:09:42.211Z,98307.78
2023-03-11T03:10:45.374Z,98313.38
2023-03-11T03:11:48.411Z,98305.78
2023-03-11T03:12:51.229Z,98315.06
2023-03-11T03:13:53.981Z,98314.47
2023-03-11T03:14:58.208Z,98317.53
2023-03-11T03:16:02.116Z,98301.78
2023-03-11T03:17:05.395Z,98262.38
2023-03-11T03:18:08.352Z,98285.91
2023-03-11T03:19:11.367Z,98316.97
2023-03-11T03:20:14.884Z,98295.84
2023-03-11T03:21:18.177Z,98306.06
2023-03-11T03:22:20.935Z,98312.09
2023-03-11T03:23:24.208Z,98308.81
2023-03-11T03:24:26.886Z,98304.66
2023-03-11T03:25:29.736Z,98302.31
2023-03-11T03:26:33.293Z,98293.28
2023-03-11T03:27:36.944Z,98302.81
2023-03-11T03:28:40.414Z,98307.22
2023-03-11T03:29:43.341Z,98301.28
2023-03-11T03:30:46.791Z,98297.28
2023-03-11T03:31:49.854Z,98298.59
2023-03-11T03:32:52.701Z,98306.44
2023-03-11T03:33:56.223Z,98285.28
2023-03-11T03:34:59.585Z,98311.69
2023-03-11T03:36:11.631Z,98313.84
2023-03-11T03:37:15.097Z,98315.72
2023-03-11T03:38:17.797Z,98313.25
2023-03-11T03:39:20.629Z,98315.31
2023-03-11T03:40:23.841Z,98321.22
2023-03-11T03:41:26.727Z,98309.94
2023-03-11T03:42:30.126Z,98311.59
2023-03-11T03:43:33.076Z,98303.88
2023-03-11T03:44:35.879Z,98294.41
2023-03-11T03:45:38.630Z,98298.91
2023-03-11T03:46:41.523Z,98293.94
2023-03-11T03:47:44.768Z,98287.88
2023-03-11T03:48:47.531Z,98222.69
2023-03-11T03:49:50.771Z,98280.88
2023-03-11T03:50:53.438Z,98241.50
2023-03-11T03:51:56.128Z,98268.75
2023-03-11T03:52:59.770Z,98268.38
2023-03-11T03:54:02.748Z,98256.03
2023-03-11T03:55:06.846Z,98264.28
2023-03-11T03:56:12.460Z,98270.87
2023-03-11T03:57:15.391Z,98279.44
2023-03-11T03:58:18.847Z,98282.06
2023-03-11T03:59:21.631Z,98285.63
2023-03-11T04:00:24.936Z,98285.37
2023-03-11T04:01:28.339Z,98254.75
2023-03-11T04:02:32.301Z,98273.59
2023-03-11T04:03:36.325Z,98267.66
2023-03-11T04:04:40.765Z,98259.25
2023-03-11T04:05:44.599Z,98264.84
2023-03-11T04:06:49.666Z,98263.09
2023-03-11T04:07:54.307Z,98261.38
2023-03-11T04:08:57.372Z,98260.25
2023-03-11T04:10:01.770Z,98273.53
2023-03-11T04:11:06.908Z,98242.25
2023-03-11T04:12:15.736Z,98257.06
2023-03-11T04:13:18.434Z,98226.63
2023-03-11T04:14:22.820Z,98278.16
2023-03-11T04:15:26.155Z,98285.03
2023-03-11T04:16:29.231Z,98279.22
2023-03-11T04:17:33.791Z,98294.09
2023-03-11T04:18:37.463Z,98294.19
2023-03-11T04:19:41.709Z,98189.53
2023-03-11T04:20:46.650Z,98293.06
2023-03-11T04:21:51.923Z,98295.91
2023-03-11T04:22:55.125Z,98295.91
2023-03-11T04:23:58.331Z,98293.41
2023-03-11T04:25:03.038Z,98292.84
2023-03-11T04:26:06.959Z,98291.03
2023-03-11T04:27:11.052Z,98297.91
2023-03-11T04:28:15.881Z,98297.81
2023-03-11T04:29:19.401Z,98299.59
2023-03-11T04:30:23.566Z,98300.09
2023-03-11T04:31:28.128Z,98259.56
2023-03-11T04:32:31.263Z,98298.06
2023-03-11T04:33:34.733Z,98272.59
2023-03-11T04:34:37.643Z,98297.91
2023-03-11T04:35:40.507Z,98298.06
2023-03-11T04:36:43.263Z,98290.22
2023-03-11T04:37:46.529Z,98297.91
2023-03-11T04:38:49.563Z,98296.72
2023-03-11T04:39:53.499Z,98287.94
2023-03-11T04:41:01.247Z,98293.97
2023-03-11T04:42:04.793Z,98282.00
2023-03-11T04:43:08.731Z,98291.13
2023-03-11T04:44:11.771Z,98288.66
2023-03-11T04:45:14.537Z,98290.31
2023-03-11T04:46:17.470Z,98251.47
2023-03-11T04:47:21.833Z,98294.59
2023-03-11T04:48:28.440Z,98286.03
2023-03-11T04:49:31.568Z,98258.44
2023-03-11T04:50:34.398Z,98293.41
2023-03-11T04:51:38.509Z,98280.38
2023-03-11T04:52:41.328Z,98298.06
2023-03-11T04:53:44.267Z,98246.63
2023-03-11T04:54:47.436Z,98298.31
2023-03-11T04:55:50.640Z,98289.19
2023-03-11T04:56:53.741Z,98302.56
2023-03-11T04:57:56.569Z,98265.84
2023-03-11T04:59:00.170Z,98305.91
2023-03-11T05:00:09.511Z,98297.22
2023-03-11T05:01:12.419Z,98304.94
2023-03-11T05:02:15.166Z,98305.91
2023-03-11T05:03:18.965Z,98286.69
2023-03-11T05:04:21.827Z,98305.31
2023-03-11T05:05:24.874Z,98300.19
2023-03-11T05:06:27.975Z,98301.03
2023-03-11T05:07:30.954Z,98279.00
2023-03-11T05:08:34.308Z,98309.97
2023-03-11T05:09:37.110Z,98299.66
2023-03-11T05:10:42.816Z,98306.66
2023-03-11T05:11:45.598Z,98317.81
2023-03-11T05:12:49.501Z,98336.91
2023-03-11T05:13:52.199Z,98326.47
2023-03-11T05:14:55.340Z,98333.47
2023-03-11T05:15:58.600Z,98288.78
2023-03-11T05:17:01.950Z,98341.06
2023-03-11T05:18:05.574Z,98345.56
2023-03-11T05:19:28.228Z,98357.31
2023-03-11T05:20:32.372Z,98355.28
2023-03-11T05:21:35.353Z,98359.56
2023-03-11T05:22:38.354Z,98355.53
2023-03-11T05:23:41.069Z,98314.50
2023-03-11T05:24:43.720Z,98323.53
2023-03-11T05:25:46.742Z,98351.84
2023-03-11T05:26:50.445Z,98354.47
2023-03-11T05:27:53.345Z,98352.81
2023-03-11T05:28:56.223Z,98357.19
2023-03-11T05:29:59.258Z,98347.69
2023-03-11T05:31:02.305Z,98349.59
2023-03-11T05:32:06.000Z,98357.44
2023-03-11T05:33:08.821Z,98360.28
2023-03-11T05:34:12.002Z,98361.38
2023-03-11T05:35:17.603Z,98364.09
2023-03-11T05:36:20.505Z,98365.16
2023-03-11T05:37:23.594Z,98360.06
2023-03-11T05:38:26.596Z,98364.47
2023-03-11T05:39:29.857Z,98363.63
2023-03-11T05:40:32.774Z,98357.00
2023-03-11T05:41:35.611Z,98357.56
2023-03-11T05:42:41.341Z,98312.53
2023-03-11T05:43:44.326Z,98353.31
2023-03-11T05:44:47.480Z,98338.13
2023-03-11T05:45:50.127Z,98330.41
2023-03-11T05:46:58.113Z,98346.44
2023-03-11T05:48:10.060Z,98342.38
2023-03-11T05:49:12.955Z,98347.13
2023-03-11T05:50:15.749Z,98308.84
2023-03-11T05:51:19.086Z,98332.44
2023-03-11T05:52:21.941Z,98336.09
2023-03-11T05:53:25.595Z,98321.41
2023-03-11T05:54:28.904Z,98335.12
2023-03-11T05:55:31.731Z,98339.87
2023-03-11T05:56:35.960Z,98351.50
2023-03-11T05:57:39.840Z,98308.13
2023-03-11T05:58:43.110Z,98346.28
2023-03-11T05:59:46.308Z,98337.00
2023-03-11T06:00:49.554Z,98344.94
2023-03-11T06:01:52.634Z,98333.91
2023-03-11T06:02:55.813Z,98349.56
2023-03-11T06:03:58.847Z,98324.41
2023-03-11T06:05:01.772Z,98345.88
2023-03-11T06:06:11.047Z,98348.63
2023-03-11T06:07:15.501Z,98339.03
2023-03-11T06:08:20.556Z,98338.19
2023-03-11T06:09:23.526Z,98331.28
2023-03-11T06:10:26.634Z,98334.69
2023-03-11T06:11:30.285Z,98331.03
2023-03-11T06:12:37.444Z,98334.22
2023-03-11T06:13:41.727Z,98332.97
2023-03-11T06:14:45.318Z,98344.69
2023-03-11T06:15:48.100Z,98339.59
2023-03-11T06:16:52.286Z,98344.00
2023-03-11T06:17:55.490Z,98339.25
2023-03-11T06:19:00.829Z,98342.31
2023-03-11T06:20:06.157Z,98338.19
2023-03-11T06:21:16.173Z,98335.12
2023-03-11T06:22:18.900Z,98296.13
2023-03-11T06:23:21.899Z,98336.75
2023-03-11T06:24:24.733Z,98340.59
2023-03-11T06:25:27.464Z,98337.84
2023-03-11T06:26:30.254Z,98340.69
2023-03-11T06:27:33.230Z,98338.47
2023-03-11T06:28:36.458Z,98347.94
2023-03-11T06:29:39.345Z,98336.53
2023-03-11T06:30:42.055Z,98335.59
2023-03-11T06:31:45.431Z,98340.44
2023-03-11T06:32:48.271Z,98346.28
2023-03-11T06:33:52.256Z,98343.28
2023-03-11T06:34:55.028Z,98344.38
2023-03-11T06:36:01.729Z,98347.69
2023-03-11T06:37:05.353Z,98353.31
2023-03-11T06:38:08.086Z,98352.59
2023-03-11T06:39:14.520Z,98355.06
2023-03-11T06:40:18.129Z,98332.28
2023-03-11T06:41:20.841Z,98348.75
2023-03-11T06:42:26.911Z,98351.28
2023-03-11T06:43:31.519Z,98345.09
2023-03-11T06:44:34.545Z,98351.28
2023-03-11T06:45:37.580Z,98359.09
2023-03-11T06:46:40.496Z,98371.44
2023-03-11T06:47:43.220Z,98371.44
2023-03-11T06:48:46.598Z,98371.44
2023-03-11T06:49:51.331Z,98367.19
2023-03-11T06:51:00.556Z,98359.34
2023-03-11T06:52:04.338Z,98372.25
2023-03-11T06:53:07.765Z,98363.37
2023-03-11T06:54:11.361Z,98373.72
2023-03-11T06:55:14.457Z,98372.88
2023-03-11T06:56:17.409Z,98370.37
2023-03-11T06:57:20.252Z,98367.19
2023-03-11T06:58:23.201Z,98382.38
2023-03-11T06:59:25.931Z,98380.81
2023-03-11T07:00:31.197Z,98381.66
2023-03-11T07:01:34.693Z,98377.53
2023-03-11T07:02:37.676Z,98376.66
2023-03-11T07:03:41.228Z,98360.56
2023-03-11T07:04:44.542Z,98364.81
2023-03-11T07:05:51.165Z,98364.56
2023-03-11T07:06:53.996Z,98370.63
2023-03-11T07:07:56.742Z,98370.37
2023-03-11T07:08:59.803Z,98368.34
2023-03-11T07:10:02.754Z,98369.31
2023-03-11T07:11:19.160Z,98365.50
2023-03-11T07:12:25.482Z,98366.84
2023-03-11T07:13:29.230Z,98356.75
2023-03-11T07:14:32.076Z,98353.41
2023-03-11T07:15:35.660Z,98354.03
2023-03-11T07:16:39.957Z,98354.63
2023-03-11T07:17:43.269Z,98347.47
2023-03-11T07:18:47.446Z,98348.06
2023-03-11T07:19:50.523Z,98356.25
2023-03-11T07:20:53.159Z,98356.09
2023-03-11T07:21:56.092Z,98361.41
2023-03-11T07:22:58.780Z,98364.63
2023-03-11T07:24:03.032Z,98368.28
2023-03-11T07:25:06.147Z,98357.41
2023-03-11T07:26:15.361Z,98358.75
2023-03-11T07:27:18.697Z,98360.34
2023-03-11T07:28:25.449Z,98353.88
2023-03-11T07:29:28.173Z,98355.28
2023-03-11T07:30:31.437Z,98353.69
2023-03-11T07:31:35.195Z,98359.97
2023-03-11T07:32:38.232Z,98367.91
2023-03-11T07:33:41.000Z,98384.09
2023-03-11T07:34:43.811Z,98383.50
2023-03-11T07:35:49.395Z,98383.50
